sensor_id;sensor_type;location;lat;lon;timestamp;P1;durP1;ratioP1;P2;durP2;ratioP2
20150;SDS011;10236;49.638;6.830;2022-09-20T00:01:24;8.53;;;4.43;;
20150;SDS011;10236;49.638;6.830;2022-09-20T00:03:52;14.50;;;5.83;;
20150;SDS011;10236;49.638;6.830;2022-09-20T00:06:19;10.50;;;5.37;;
20150;SDS011;10236;49.638;6.830;2022-09-20T00:08:46;12.07;;;5.27;;
20150;SDS011;10236;49.638;6.830;2022-09-20T00:11:23;9.77;;;5.53;;
20150;SDS011;10236;49.638;6.830;2022-09-20T00:13:50;12.50;;;5.53;;
20150;SDS011;10236;49.638;6.830;2022-09-20T00:16:18;7.83;;;4.47;;
20150;SDS011;10236;49.638;6.830;2022-09-20T00:18:48;9.60;;;4.40;;
20150;SDS011;10236;49.638;6.830;2022-09-20T00:21:19;10.63;;;5.03;;
20150;SDS011;10236;49.638;6.830;2022-09-20T00:23:45;11.00;;;5.13;;
20150;SDS011;10236;49.638;6.830;2022-09-20T00:26:11;7.93;;;4.43;;
20150;SDS011;10236;49.638;6.830;2022-09-20T00:28:38;11.77;;;4.30;;
20150;SDS011;10236;49.638;6.830;2022-09-20T00:31:04;7.83;;;4.47;;
20150;SDS011;10236;49.638;6.830;2022-09-20T00:33:30;9.00;;;4.00;;
20150;SDS011;10236;49.638;6.830;2022-09-20T00:36:15;8.00;;;4.53;;
20150;SDS011;10236;49.638;6.830;2022-09-20T00:38:41;12.17;;;4.67;;
20150;SDS011;10236;49.638;6.830;2022-09-20T00:41:07;8.93;;;4.70;;
20150;SDS011;10236;49.638;6.830;2022-09-20T00:43:43;9.20;;;4.67;;
20150;SDS011;10236;49.638;6.830;2022-09-20T00:46:15;8.67;;;4.60;;
20150;SDS011;10236;49.638;6.830;2022-09-20T00:48:43;9.53;;;4.30;;
20150;SDS011;10236;49.638;6.830;2022-09-20T00:51:10;8.17;;;4.77;;
20150;SDS011;10236;49.638;6.830;2022-09-20T00:53:38;8.50;;;4.53;;
20150;SDS011;10236;49.638;6.830;2022-09-20T00:56:07;9.00;;;4.23;;
20150;SDS011;10236;49.638;6.830;2022-09-20T00:58:37;12.73;;;4.90;;
20150;SDS011;10236;49.638;6.830;2022-09-20T01:01:04;9.70;;;4.60;;
20150;SDS011;10236;49.638;6.830;2022-09-20T01:03:30;8.93;;;3.83;;
20150;SDS011;10236;49.638;6.830;2022-09-20T01:06:03;10.33;;;3.73;;
20150;SDS011;10236;49.638;6.830;2022-09-20T01:08:30;6.37;;;3.80;;
20150;SDS011;10236;49.638;6.830;2022-09-20T01:10:56;6.87;;;4.03;;
20150;SDS011;10236;49.638;6.830;2022-09-20T01:13:23;8.13;;;3.70;;
20150;SDS011;10236;49.638;6.830;2022-09-20T01:15:48;6.30;;;3.70;;
20150;SDS011;10236;49.638;6.830;2022-09-20T01:18:15;9.73;;;3.60;;
20150;SDS011;10236;49.638;6.830;2022-09-20T01:20:42;5.80;;;2.90;;
20150;SDS011;10236;49.638;6.830;2022-09-20T01:28:26;7.53;;;3.73;;
20150;SDS011;10236;49.638;6.830;2022-09-20T01:31:14;6.17;;;3.47;;
20150;SDS011;10236;49.638;6.830;2022-09-20T01:33:51;7.53;;;3.17;;
20150;SDS011;10236;49.638;6.830;2022-09-20T01:36:23;8.20;;;3.83;;
20150;SDS011;10236;49.638;6.830;2022-09-20T01:41:31;6.97;;;4.13;;
20150;SDS011;10236;49.638;6.830;2022-09-20T01:46:34;6.00;;;3.47;;
20150;SDS011;10236;49.638;6.830;2022-09-20T01:54:36;7.17;;;4.00;;
20150;SDS011;10236;49.638;6.830;2022-09-20T01:59:46;6.70;;;3.13;;
20150;SDS011;10236;49.638;6.830;2022-09-20T02:14:56;8.40;;;2.60;;
20150;SDS011;10236;49.638;6.830;2022-09-20T02:17:31;3.63;;;2.30;;
20150;SDS011;10236;49.638;6.830;2022-09-20T02:20:06;4.57;;;2.60;;
20150;SDS011;10236;49.638;6.830;2022-09-20T02:46:24;8.00;;;2.07;;
20150;SDS011;10236;49.638;6.830;2022-09-20T02:49:04;4.63;;;2.07;;
20150;SDS011;10236;49.638;6.830;2022-09-20T02:56:58;5.73;;;2.40;;
20150;SDS011;10236;49.638;6.830;2022-09-20T02:59:30;4.30;;;2.40;;
20150;SDS011;10236;49.638;6.830;2022-09-20T03:02:02;5.37;;;2.40;;
20150;SDS011;10236;49.638;6.830;2022-09-20T03:09:43;4.87;;;2.07;;
20150;SDS011;10236;49.638;6.830;2022-09-20T03:13:16;5.20;;;2.27;;
20150;SDS011;10236;49.638;6.830;2022-09-20T03:17:46;6.40;;;3.07;;
20150;SDS011;10236;49.638;6.830;2022-09-20T03:33:38;6.37;;;1.97;;
20150;SDS011;10236;49.638;6.830;2022-09-20T03:46:56;3.13;;;1.77;;
20150;SDS011;10236;49.638;6.830;2022-09-20T03:49:23;4.40;;;1.73;;
20150;SDS011;10236;49.638;6.830;2022-09-20T03:52:05;4.53;;;2.03;;
20150;SDS011;10236;49.638;6.830;2022-09-20T03:54:42;7.10;;;2.00;;
20150;SDS011;10236;49.638;6.830;2022-09-20T04:04:46;3.90;;;1.90;;
20150;SDS011;10236;49.638;6.830;2022-09-20T04:12:09;4.73;;;1.93;;
20150;SDS011;10236;49.638;6.830;2022-09-20T04:14:42;6.27;;;1.70;;
20150;SDS011;10236;49.638;6.830;2022-09-20T04:17:19;6.20;;;2.10;;
20150;SDS011;10236;49.638;6.830;2022-09-20T04:19:51;4.53;;;2.30;;
20150;SDS011;10236;49.638;6.830;2022-09-20T04:22:19;4.40;;;2.40;;
20150;SDS011;10236;49.638;6.830;2022-09-20T04:30:00;6.20;;;2.60;;
20150;SDS011;10236;49.638;6.830;2022-09-20T04:32:34;5.73;;;2.40;;
20150;SDS011;10236;49.638;6.830;2022-09-20T04:37:49;9.20;;;2.83;;
20150;SDS011;10236;49.638;6.830;2022-09-20T04:55:52;5.70;;;2.90;;
20150;SDS011;10236;49.638;6.830;2022-09-20T05:03:45;7.97;;;3.77;;
20150;SDS011;10236;49.638;6.830;2022-09-20T05:30:49;5.13;;;2.73;;
20150;SDS011;10236;49.638;6.830;2022-09-20T05:33:21;5.73;;;2.80;;
20150;SDS011;10236;49.638;6.830;2022-09-20T05:38:22;8.50;;;3.70;;
20150;SDS011;10236;49.638;6.830;2022-09-20T05:43:19;7.10;;;4.33;;
20150;SDS011;10236;49.638;6.830;2022-09-20T05:54:18;5.93;;;3.63;;
20150;SDS011;10236;49.638;6.830;2022-09-20T05:59:21;7.63;;;2.70;;
20150;SDS011;10236;49.638;6.830;2022-09-20T06:04:28;6.50;;;2.53;;
20150;SDS011;10236;49.638;6.830;2022-09-20T06:09:27;8.27;;;4.10;;
20150;SDS011;10236;49.638;6.830;2022-09-20T06:14:30;8.37;;;4.00;;
20150;SDS011;10236;49.638;6.830;2022-09-20T06:19:31;6.97;;;4.40;;
20150;SDS011;10236;49.638;6.830;2022-09-20T06:22:06;10.40;;;4.57;;
20150;SDS011;10236;49.638;6.830;2022-09-20T06:24:41;7.83;;;4.93;;
20150;SDS011;10236;49.638;6.830;2022-09-20T06:27:17;14.67;;;6.20;;
20150;SDS011;10236;49.638;6.830;2022-09-20T06:29:48;13.10;;;7.33;;
20150;SDS011;10236;49.638;6.830;2022-09-20T06:32:16;16.40;;;10.07;;
20150;SDS011;10236;49.638;6.830;2022-09-20T06:34:42;22.40;;;11.23;;
20150;SDS011;10236;49.638;6.830;2022-09-20T06:37:18;22.43;;;10.10;;
20150;SDS011;10236;49.638;6.830;2022-09-20T06:42:50;17.53;;;9.90;;
20150;SDS011;10236;49.638;6.830;2022-09-20T06:45:17;29.63;;;21.60;;
20150;SDS011;10236;49.638;6.830;2022-09-20T06:47:43;12.93;;;6.97;;
20150;SDS011;10236;49.638;6.830;2022-09-20T06:50:15;58.37;;;27.40;;
20150;SDS011;10236;49.638;6.830;2022-09-20T06:52:41;17.00;;;7.30;;
20150;SDS011;10236;49.638;6.830;2022-09-20T06:55:10;20.63;;;11.93;;
20150;SDS011;10236;49.638;6.830;2022-09-20T06:57:42;27.93;;;13.93;;
20150;SDS011;10236;49.638;6.830;2022-09-20T07:00:08;23.27;;;13.77;;
20150;SDS011;10236;49.638;6.830;2022-09-20T07:02:38;45.23;;;22.20;;
20150;SDS011;10236;49.638;6.830;2022-09-20T07:05:04;54.23;;;30.70;;
20150;SDS011;10236;49.638;6.830;2022-09-20T07:07:31;13.80;;;7.80;;
20150;SDS011;10236;49.638;6.830;2022-09-20T07:09:57;15.13;;;6.63;;
20150;SDS011;10236;49.638;6.830;2022-09-20T07:12:23;15.57;;;9.07;;
20150;SDS011;10236;49.638;6.830;2022-09-20T07:14:49;11.27;;;5.83;;
20150;SDS011;10236;49.638;6.830;2022-09-20T07:17:18;12.07;;;5.97;;
20150;SDS011;10236;49.638;6.830;2022-09-20T07:19:46;8.70;;;5.63;;
20150;SDS011;10236;49.638;6.830;2022-09-20T07:22:12;10.03;;;6.03;;
20150;SDS011;10236;49.638;6.830;2022-09-20T07:24:38;8.07;;;5.93;;
20150;SDS011;10236;49.638;6.830;2022-09-20T07:27:05;13.00;;;5.40;;
20150;SDS011;10236;49.638;6.830;2022-09-20T07:29:31;9.73;;;6.27;;
20150;SDS011;10236;49.638;6.830;2022-09-20T07:31:59;12.50;;;7.30;;
20150;SDS011;10236;49.638;6.830;2022-09-20T07:34:25;12.30;;;7.17;;
20150;SDS011;10236;49.638;6.830;2022-09-20T07:36:51;8.33;;;6.37;;
20150;SDS011;10236;49.638;6.830;2022-09-20T07:39:17;10.90;;;7.63;;
20150;SDS011;10236;49.638;6.830;2022-09-20T07:41:43;13.60;;;7.30;;
20150;SDS011;10236;49.638;6.830;2022-09-20T07:44:14;10.80;;;7.30;;
20150;SDS011;10236;49.638;6.830;2022-09-20T07:46:52;10.53;;;7.20;;
20150;SDS011;10236;49.638;6.830;2022-09-20T07:49:18;17.50;;;6.87;;
20150;SDS011;10236;49.638;6.830;2022-09-20T07:51:45;11.87;;;6.97;;
20150;SDS011;10236;49.638;6.830;2022-09-20T07:54:11;13.10;;;6.93;;
20150;SDS011;10236;49.638;6.830;2022-09-20T07:56:37;16.20;;;10.07;;
20150;SDS011;10236;49.638;6.830;2022-09-20T07:59:03;16.07;;;8.10;;
20150;SDS011;10236;49.638;6.830;2022-09-20T08:01:29;13.77;;;7.70;;
20150;SDS011;10236;49.638;6.830;2022-09-20T08:03:55;10.23;;;4.50;;
20150;SDS011;10236;49.638;6.830;2022-09-20T08:06:21;10.47;;;4.10;;
20150;SDS011;10236;49.638;6.830;2022-09-20T08:08:47;7.40;;;3.20;;
20150;SDS011;10236;49.638;6.830;2022-09-20T08:11:16;6.10;;;3.30;;
20150;SDS011;10236;49.638;6.830;2022-09-20T08:13:49;6.10;;;2.90;;
20150;SDS011;10236;49.638;6.830;2022-09-20T08:16:16;17.93;;;10.27;;
20150;SDS011;10236;49.638;6.830;2022-09-20T08:18:49;9.70;;;6.53;;
20150;SDS011;10236;49.638;6.830;2022-09-20T08:21:15;5.33;;;2.47;;
20150;SDS011;10236;49.638;6.830;2022-09-20T08:23:42;5.97;;;2.60;;
20150;SDS011;10236;49.638;6.830;2022-09-20T08:26:10;4.40;;;2.10;;
20150;SDS011;10236;49.638;6.830;2022-09-20T08:28:36;5.23;;;2.03;;
20150;SDS011;10236;49.638;6.830;2022-09-20T08:31:03;6.43;;;2.10;;
20150;SDS011;10236;49.638;6.830;2022-09-20T08:33:30;6.70;;;1.60;;
20150;SDS011;10236;49.638;6.830;2022-09-20T08:35:56;6.13;;;2.07;;
20150;SDS011;10236;49.638;6.830;2022-09-20T08:38:22;2.87;;;1.60;;
20150;SDS011;10236;49.638;6.830;2022-09-20T08:40:52;8.03;;;1.57;;
20150;SDS011;10236;49.638;6.830;2022-09-20T08:43:18;8.13;;;1.60;;
20150;SDS011;10236;49.638;6.830;2022-09-20T08:45:45;3.23;;;1.60;;
20150;SDS011;10236;49.638;6.830;2022-09-20T08:48:11;8.17;;;1.80;;
20150;SDS011;10236;49.638;6.830;2022-09-20T08:50:40;7.30;;;2.03;;
20150;SDS011;10236;49.638;6.830;2022-09-20T08:53:06;6.03;;;1.90;;
20150;SDS011;10236;49.638;6.830;2022-09-20T08:55:37;6.47;;;1.60;;
20150;SDS011;10236;49.638;6.830;2022-09-20T08:58:07;6.20;;;2.40;;
20150;SDS011;10236;49.638;6.830;2022-09-20T09:00:35;5.93;;;1.77;;
20150;SDS011;10236;49.638;6.830;2022-09-20T09:03:11;9.87;;;1.97;;
20150;SDS011;10236;49.638;6.830;2022-09-20T09:05:53;8.97;;;1.30;;
20150;SDS011;10236;49.638;6.830;2022-09-20T09:08:27;9.13;;;3.07;;
20150;SDS011;10236;49.638;6.830;2022-09-20T09:10:59;4.53;;;1.43;;
20150;SDS011;10236;49.638;6.830;2022-09-20T09:13:33;8.43;;;3.70;;
20150;SDS011;10236;49.638;6.830;2022-09-20T09:16:07;3.03;;;1.13;;
20150;SDS011;10236;49.638;6.830;2022-09-20T09:18:39;3.07;;;1.20;;
20150;SDS011;10236;49.638;6.830;2022-09-20T09:21:05;4.10;;;1.40;;
20150;SDS011;10236;49.638;6.830;2022-09-20T09:23:39;4.90;;;1.30;;
20150;SDS011;10236;49.638;6.830;2022-09-20T09:26:11;4.13;;;1.27;;
20150;SDS011;10236;49.638;6.830;2022-09-20T09:28:38;3.87;;;1.20;;
20150;SDS011;10236;49.638;6.830;2022-09-20T09:31:21;10.10;;;3.27;;
20150;SDS011;10236;49.638;6.830;2022-09-20T09:33:49;4.40;;;1.80;;
20150;SDS011;10236;49.638;6.830;2022-09-20T09:36:16;5.77;;;2.00;;
20150;SDS011;10236;49.638;6.830;2022-09-20T09:38:46;5.03;;;1.33;;
20150;SDS011;10236;49.638;6.830;2022-09-20T09:41:23;5.70;;;2.37;;
20150;SDS011;10236;49.638;6.830;2022-09-20T09:43:59;3.93;;;1.47;;
20150;SDS011;10236;49.638;6.830;2022-09-20T09:46:25;5.73;;;1.90;;
20150;SDS011;10236;49.638;6.830;2022-09-20T09:51:31;5.63;;;1.33;;
20150;SDS011;10236;49.638;6.830;2022-09-20T09:53:57;3.70;;;1.40;;
20150;SDS011;10236;49.638;6.830;2022-09-20T09:59:14;3.87;;;1.20;;
20150;SDS011;10236;49.638;6.830;2022-09-20T10:02:07;3.73;;;1.27;;
20150;SDS011;10236;49.638;6.830;2022-09-20T10:04:45;3.00;;;1.50;;
20150;SDS011;10236;49.638;6.830;2022-09-20T10:27:03;3.80;;;1.10;;
20150;SDS011;10236;49.638;6.830;2022-09-20T10:29:39;5.60;;;1.40;;
20150;SDS011;10236;49.638;6.830;2022-09-20T10:37:20;3.33;;;1.20;;
20150;SDS011;10236;49.638;6.830;2022-09-20T10:39:55;2.37;;;0.90;;
20150;SDS011;10236;49.638;6.830;2022-09-20T10:43:08;2.00;;;0.70;;
20150;SDS011;10236;49.638;6.830;2022-09-20T10:45:58;3.53;;;1.20;;
20150;SDS011;10236;49.638;6.830;2022-09-20T10:48:45;3.97;;;1.03;;
20150;SDS011;10236;49.638;6.830;2022-09-20T10:51:20;5.43;;;1.80;;
20150;SDS011;10236;49.638;6.830;2022-09-20T10:59:02;5.13;;;2.17;;
20150;SDS011;10236;49.638;6.830;2022-09-20T11:09:02;38.33;;;18.50;;
20150;SDS011;10236;49.638;6.830;2022-09-20T11:11:45;3.63;;;1.73;;
20150;SDS011;10236;49.638;6.830;2022-09-20T11:14:13;3.73;;;1.07;;
20150;SDS011;10236;49.638;6.830;2022-09-20T11:19:20;5.47;;;1.57;;
20150;SDS011;10236;49.638;6.830;2022-09-20T11:21:55;2.17;;;1.00;;
20150;SDS011;10236;49.638;6.830;2022-09-20T11:26:52;9.30;;;5.13;;
20150;SDS011;10236;49.638;6.830;2022-09-20T11:29:21;30.23;;;18.30;;
20150;SDS011;10236;49.638;6.830;2022-09-20T11:31:50;4.67;;;1.60;;
20150;SDS011;10236;49.638;6.830;2022-09-20T11:34:28;3.10;;;1.60;;
20150;SDS011;10236;49.638;6.830;2022-09-20T11:37:13;8.40;;;1.70;;
20150;SDS011;10236;49.638;6.830;2022-09-20T13:29:42;14.40;;;6.90;;
20150;SDS011;10236;49.638;6.830;2022-09-20T13:34:40;4.37;;;2.17;;
20150;SDS011;10236;49.638;6.830;2022-09-20T13:37:07;3.70;;;1.77;;
20150;SDS011;10236;49.638;6.830;2022-09-20T13:39:40;4.83;;;1.60;;
20150;SDS011;10236;49.638;6.830;2022-09-20T13:42:14;1.37;;;0.93;;
20150;SDS011;10236;49.638;6.830;2022-09-20T13:44:47;3.80;;;0.83;;
20150;SDS011;10236;49.638;6.830;2022-09-20T13:47:20;2.70;;;0.80;;
20150;SDS011;10236;49.638;6.830;2022-09-20T13:49:47;7.00;;;1.40;;
20150;SDS011;10236;49.638;6.830;2022-09-20T13:52:26;1.50;;;0.70;;
20150;SDS011;10236;49.638;6.830;2022-09-20T13:57:40;2.13;;;0.80;;
20150;SDS011;10236;49.638;6.830;2022-09-20T14:00:06;1.90;;;0.80;;
20150;SDS011;10236;49.638;6.830;2022-09-20T14:02:33;2.63;;;0.80;;
20150;SDS011;10236;49.638;6.830;2022-09-20T14:04:59;2.20;;;0.60;;
20150;SDS011;10236;49.638;6.830;2022-09-20T14:07:26;2.63;;;0.63;;
20150;SDS011;10236;49.638;6.830;2022-09-20T14:09:53;1.77;;;0.80;;
20150;SDS011;10236;49.638;6.830;2022-09-20T14:12:20;1.87;;;0.80;;
20150;SDS011;10236;49.638;6.830;2022-09-20T14:14:47;1.77;;;0.70;;
20150;SDS011;10236;49.638;6.830;2022-09-20T14:17:14;4.77;;;0.63;;
20150;SDS011;10236;49.638;6.830;2022-09-20T14:19:42;3.50;;;0.70;;
20150;SDS011;10236;49.638;6.830;2022-09-20T14:22:14;2.53;;;1.67;;
20150;SDS011;10236;49.638;6.830;2022-09-20T14:24:41;1.73;;;0.90;;
20150;SDS011;10236;49.638;6.830;2022-09-20T14:27:21;1.77;;;1.30;;
20150;SDS011;10236;49.638;6.830;2022-09-20T14:29:48;2.87;;;0.90;;
20150;SDS011;10236;49.638;6.830;2022-09-20T14:37:47;1.50;;;0.80;;
20150;SDS011;10236;49.638;6.830;2022-09-20T14:42:46;1.90;;;0.80;;
20150;SDS011;10236;49.638;6.830;2022-09-20T14:45:29;2.47;;;0.70;;
20150;SDS011;10236;49.638;6.830;2022-09-20T14:47:57;1.80;;;1.00;;
20150;SDS011;10236;49.638;6.830;2022-09-20T14:53:24;1.17;;;0.60;;
20150;SDS011;10236;49.638;6.830;2022-09-20T14:55:55;1.60;;;0.60;;
20150;SDS011;10236;49.638;6.830;2022-09-20T14:58:21;1.90;;;0.67;;
20150;SDS011;10236;49.638;6.830;2022-09-20T15:00:56;3.07;;;0.50;;
20150;SDS011;10236;49.638;6.830;2022-09-20T15:03:29;1.80;;;0.73;;
20150;SDS011;10236;49.638;6.830;2022-09-20T15:06:00;2.60;;;0.80;;
20150;SDS011;10236;49.638;6.830;2022-09-20T15:08:25;3.43;;;0.80;;
20150;SDS011;10236;49.638;6.830;2022-09-20T15:10:52;1.90;;;0.70;;
20150;SDS011;10236;49.638;6.830;2022-09-20T15:13:18;3.10;;;0.88;;
20150;SDS011;10236;49.638;6.830;2022-09-20T15:15:45;1.65;;;0.68;;
20150;SDS011;10236;49.638;6.830;2022-09-20T15:20:42;2.45;;;1.00;;
20150;SDS011;10236;49.638;6.830;2022-09-20T15:23:07;2.08;;;0.70;;
20150;SDS011;10236;49.638;6.830;2022-09-20T15:25:33;2.13;;;0.80;;
20150;SDS011;10236;49.638;6.830;2022-09-20T15:27:59;2.40;;;0.90;;
20150;SDS011;10236;49.638;6.830;2022-09-20T15:30:25;2.40;;;0.77;;
20150;SDS011;10236;49.638;6.830;2022-09-20T15:32:51;4.10;;;1.17;;
20150;SDS011;10236;49.638;6.830;2022-09-20T15:35:17;1.97;;;1.00;;
20150;SDS011;10236;49.638;6.830;2022-09-20T15:37:43;2.40;;;1.10;;
20150;SDS011;10236;49.638;6.830;2022-09-20T15:40:10;1.97;;;0.73;;
20150;SDS011;10236;49.638;6.830;2022-09-20T15:42:36;2.17;;;1.00;;
20150;SDS011;10236;49.638;6.830;2022-09-20T15:45:09;2.60;;;0.83;;
20150;SDS011;10236;49.638;6.830;2022-09-20T15:47:35;4.03;;;0.93;;
20150;SDS011;10236;49.638;6.830;2022-09-20T15:50:03;4.30;;;0.90;;
20150;SDS011;10236;49.638;6.830;2022-09-20T15:52:34;4.33;;;0.70;;
20150;SDS011;10236;49.638;6.830;2022-09-20T15:55:01;2.30;;;1.13;;
20150;SDS011;10236;49.638;6.830;2022-09-20T15:57:28;2.27;;;0.70;;
20150;SDS011;10236;49.638;6.830;2022-09-20T15:59:53;3.60;;;1.00;;
20150;SDS011;10236;49.638;6.830;2022-09-20T16:02:19;1.13;;;0.67;;
20150;SDS011;10236;49.638;6.830;2022-09-20T16:04:46;3.03;;;1.17;;
20150;SDS011;10236;49.638;6.830;2022-09-20T16:07:12;2.90;;;0.90;;
20150;SDS011;10236;49.638;6.830;2022-09-20T16:09:40;2.03;;;0.90;;
20150;SDS011;10236;49.638;6.830;2022-09-20T16:12:06;2.47;;;0.90;;
20150;SDS011;10236;49.638;6.830;2022-09-20T16:14:33;2.17;;;1.00;;
20150;SDS011;10236;49.638;6.830;2022-09-20T16:16:59;3.97;;;1.03;;
20150;SDS011;10236;49.638;6.830;2022-09-20T16:19:25;4.03;;;1.00;;
20150;SDS011;10236;49.638;6.830;2022-09-20T16:24:52;2.83;;;1.73;;
20150;SDS011;10236;49.638;6.830;2022-09-20T16:30:07;3.83;;;1.20;;
20150;SDS011;10236;49.638;6.830;2022-09-20T16:32:33;2.33;;;0.80;;
20150;SDS011;10236;49.638;6.830;2022-09-20T16:34:59;1.53;;;0.90;;
20150;SDS011;10236;49.638;6.830;2022-09-20T16:37:31;2.80;;;1.27;;
20150;SDS011;10236;49.638;6.830;2022-09-20T16:39:57;1.83;;;1.10;;
20150;SDS011;10236;49.638;6.830;2022-09-20T16:42:23;3.00;;;1.30;;
20150;SDS011;10236;49.638;6.830;2022-09-20T16:44:50;3.33;;;1.17;;
20150;SDS011;10236;49.638;6.830;2022-09-20T16:47:15;1.40;;;1.10;;
20150;SDS011;10236;49.638;6.830;2022-09-20T16:49:45;4.33;;;1.27;;
20150;SDS011;10236;49.638;6.830;2022-09-20T16:52:12;6.27;;;1.30;;
20150;SDS011;10236;49.638;6.830;2022-09-20T16:54:38;2.73;;;1.10;;
20150;SDS011;10236;49.638;6.830;2022-09-20T16:57:04;2.83;;;1.10;;
20150;SDS011;10236;49.638;6.830;2022-09-20T16:59:30;3.33;;;1.10;;
20150;SDS011;10236;49.638;6.830;2022-09-20T17:01:56;4.43;;;2.37;;
20150;SDS011;10236;49.638;6.830;2022-09-20T17:04:22;3.20;;;1.67;;
20150;SDS011;10236;49.638;6.830;2022-09-20T17:06:49;3.90;;;1.47;;
20150;SDS011;10236;49.638;6.830;2022-09-20T17:09:16;10.60;;;6.37;;
20150;SDS011;10236;49.638;6.830;2022-09-20T17:11:51;8.93;;;5.63;;
20150;SDS011;10236;49.638;6.830;2022-09-20T17:14:18;8.43;;;4.23;;
20150;SDS011;10236;49.638;6.830;2022-09-20T17:16:44;7.10;;;3.67;;
20150;SDS011;10236;49.638;6.830;2022-09-20T17:19:18;6.70;;;3.63;;
20150;SDS011;10236;49.638;6.830;2022-09-20T17:21:44;5.70;;;2.90;;
20150;SDS011;10236;49.638;6.830;2022-09-20T17:24:13;10.17;;;3.87;;
20150;SDS011;10236;49.638;6.830;2022-09-20T17:26:40;9.23;;;4.93;;
20150;SDS011;10236;49.638;6.830;2022-09-20T17:29:08;4.27;;;2.30;;
20150;SDS011;10236;49.638;6.830;2022-09-20T17:31:37;3.90;;;1.30;;
20150;SDS011;10236;49.638;6.830;2022-09-20T17:34:06;2.40;;;1.07;;
20150;SDS011;10236;49.638;6.830;2022-09-20T17:36:34;3.57;;;1.50;;
20150;SDS011;10236;49.638;6.830;2022-09-20T17:39:03;8.00;;;2.77;;
20150;SDS011;10236;49.638;6.830;2022-09-20T17:41:30;4.37;;;2.47;;
20150;SDS011;10236;49.638;6.830;2022-09-20T17:43:57;8.80;;;5.00;;
20150;SDS011;10236;49.638;6.830;2022-09-20T17:46:24;5.30;;;3.83;;
20150;SDS011;10236;49.638;6.830;2022-09-20T17:48:54;7.23;;;1.80;;
20150;SDS011;10236;49.638;6.830;2022-09-20T17:51:24;4.53;;;2.10;;
20150;SDS011;10236;49.638;6.830;2022-09-20T17:53:51;4.20;;;1.93;;
20150;SDS011;10236;49.638;6.830;2022-09-20T17:56:17;4.93;;;2.07;;
20150;SDS011;10236;49.638;6.830;2022-09-20T17:58:43;5.97;;;2.53;;
20150;SDS011;10236;49.638;6.830;2022-09-20T18:01:10;6.73;;;2.90;;
20150;SDS011;10236;49.638;6.830;2022-09-20T18:03:37;6.10;;;2.67;;
20150;SDS011;10236;49.638;6.830;2022-09-20T18:08:36;5.80;;;2.97;;
20150;SDS011;10236;49.638;6.830;2022-09-20T18:11:02;5.33;;;2.37;;
20150;SDS011;10236;49.638;6.830;2022-09-20T18:13:28;4.40;;;3.03;;
20150;SDS011;10236;49.638;6.830;2022-09-20T18:18:49;4.63;;;2.83;;
20150;SDS011;10236;49.638;6.830;2022-09-20T18:21:15;3.17;;;1.73;;
20150;SDS011;10236;49.638;6.830;2022-09-20T18:23:42;10.00;;;9.00;;
20150;SDS011;10236;49.638;6.830;2022-09-20T18:26:15;4.73;;;3.80;;
20150;SDS011;10236;49.638;6.830;2022-09-20T18:28:57;5.13;;;2.80;;
20150;SDS011;10236;49.638;6.830;2022-09-20T18:31:29;5.23;;;2.83;;
20150;SDS011;10236;49.638;6.830;2022-09-20T18:33:56;6.47;;;1.73;;
20150;SDS011;10236;49.638;6.830;2022-09-20T18:36:23;3.10;;;1.20;;
20150;SDS011;10236;49.638;6.830;2022-09-20T18:38:50;4.80;;;1.13;;
20150;SDS011;10236;49.638;6.830;2022-09-20T18:41:18;5.43;;;2.63;;
20150;SDS011;10236;49.638;6.830;2022-09-20T18:43:45;22.90;;;11.87;;
20150;SDS011;10236;49.638;6.830;2022-09-20T18:46:11;24.67;;;12.97;;
20150;SDS011;10236;49.638;6.830;2022-09-20T18:48:38;10.43;;;7.13;;
20150;SDS011;10236;49.638;6.830;2022-09-20T18:51:04;10.97;;;4.87;;
20150;SDS011;10236;49.638;6.830;2022-09-20T18:53:31;5.97;;;4.37;;
20150;SDS011;10236;49.638;6.830;2022-09-20T18:56:33;10.00;;;3.97;;
20150;SDS011;10236;49.638;6.830;2022-09-20T18:58:52;6.57;;;3.00;;
20150;SDS011;10236;49.638;6.830;2022-09-20T19:07:22;5.60;;;2.50;;
20150;SDS011;10236;49.638;6.830;2022-09-20T19:09:30;4.70;;;2.27;;
20150;SDS011;10236;49.638;6.830;2022-09-20T19:11:59;2.63;;;1.60;;
20150;SDS011;10236;49.638;6.830;2022-09-20T19:14:29;4.10;;;2.00;;
20150;SDS011;10236;49.638;6.830;2022-09-20T19:16:59;4.43;;;2.50;;
20150;SDS011;10236;49.638;6.830;2022-09-20T19:22:02;2.90;;;1.90;;
20150;SDS011;10236;49.638;6.830;2022-09-20T19:26:58;4.13;;;1.73;;
20150;SDS011;10236;49.638;6.830;2022-09-20T19:29:25;2.67;;;1.63;;
20150;SDS011;10236;49.638;6.830;2022-09-20T19:31:55;4.47;;;2.00;;
20150;SDS011;10236;49.638;6.830;2022-09-20T19:34:23;2.90;;;1.40;;
20150;SDS011;10236;49.638;6.830;2022-09-20T19:37:01;3.87;;;1.63;;
20150;SDS011;10236;49.638;6.830;2022-09-20T19:44:54;4.93;;;1.30;;
20150;SDS011;10236;49.638;6.830;2022-09-20T19:50:28;3.47;;;1.43;;
20150;SDS011;10236;49.638;6.830;2022-09-20T19:52:57;4.57;;;1.70;;
20150;SDS011;10236;49.638;6.830;2022-09-20T19:55:23;4.10;;;1.90;;
20150;SDS011;10236;49.638;6.830;2022-09-20T19:57:49;1.90;;;1.10;;
20150;SDS011;10236;49.638;6.830;2022-09-20T20:00:16;3.50;;;1.50;;
20150;SDS011;10236;49.638;6.830;2022-09-20T20:02:43;3.50;;;1.63;;
20150;SDS011;10236;49.638;6.830;2022-09-20T20:05:10;3.63;;;1.50;;
20150;SDS011;10236;49.638;6.830;2022-09-20T20:10:17;4.53;;;1.80;;
20150;SDS011;10236;49.638;6.830;2022-09-20T20:12:51;5.63;;;1.77;;
20150;SDS011;10236;49.638;6.830;2022-09-20T20:20:42;3.40;;;2.70;;
20150;SDS011;10236;49.638;6.830;2022-09-20T20:25:54;12.13;;;5.93;;
20150;SDS011;10236;49.638;6.830;2022-09-20T20:28:27;8.97;;;2.97;;
20150;SDS011;10236;49.638;6.830;2022-09-20T20:30:53;4.70;;;2.57;;
20150;SDS011;10236;49.638;6.830;2022-09-20T20:33:19;6.50;;;3.20;;
20150;SDS011;10236;49.638;6.830;2022-09-20T20:35:51;12.97;;;6.60;;
20150;SDS011;10236;49.638;6.830;2022-09-20T20:38:17;32.50;;;17.33;;
20150;SDS011;10236;49.638;6.830;2022-09-20T20:40:44;21.03;;;12.60;;
20150;SDS011;10236;49.638;6.830;2022-09-20T20:43:10;43.47;;;23.50;;
20150;SDS011;10236;49.638;6.830;2022-09-20T20:45:36;47.47;;;27.73;;
20150;SDS011;10236;49.638;6.830;2022-09-20T20:48:02;47.57;;;25.97;;
20150;SDS011;10236;49.638;6.830;2022-09-20T20:50:28;46.97;;;25.07;;
20150;SDS011;10236;49.638;6.830;2022-09-20T20:52:55;28.20;;;17.03;;
20150;SDS011;10236;49.638;6.830;2022-09-20T20:55:21;18.27;;;10.97;;
20150;SDS011;10236;49.638;6.830;2022-09-20T20:57:54;8.73;;;5.50;;
20150;SDS011;10236;49.638;6.830;2022-09-20T21:00:24;7.80;;;3.00;;
20150;SDS011;10236;49.638;6.830;2022-09-20T21:02:57;7.20;;;2.20;;
20150;SDS011;10236;49.638;6.830;2022-09-20T21:05:24;4.03;;;2.50;;
20150;SDS011;10236;49.638;6.830;2022-09-20T21:07:50;13.03;;;7.17;;
20150;SDS011;10236;49.638;6.830;2022-09-20T21:10:17;10.23;;;5.37;;
20150;SDS011;10236;49.638;6.830;2022-09-20T21:12:43;8.53;;;4.83;;
20150;SDS011;10236;49.638;6.830;2022-09-20T21:15:09;6.17;;;2.20;;
20150;SDS011;10236;49.638;6.830;2022-09-20T21:17:36;7.77;;;3.43;;
20150;SDS011;10236;49.638;6.830;2022-09-20T21:20:02;10.23;;;6.47;;
20150;SDS011;10236;49.638;6.830;2022-09-20T21:22:28;9.67;;;5.37;;
20150;SDS011;10236;49.638;6.830;2022-09-20T21:24:56;8.77;;;4.43;;
20150;SDS011;10236;49.638;6.830;2022-09-20T21:27:22;7.03;;;4.83;;
20150;SDS011;10236;49.638;6.830;2022-09-20T21:29:48;8.50;;;5.60;;
20150;SDS011;10236;49.638;6.830;2022-09-20T21:32:14;7.97;;;4.50;;
20150;SDS011;10236;49.638;6.830;2022-09-20T21:34:39;5.20;;;2.97;;
20150;SDS011;10236;49.638;6.830;2022-09-20T21:37:05;4.33;;;2.10;;
20150;SDS011;10236;49.638;6.830;2022-09-20T21:39:31;5.07;;;3.20;;
20150;SDS011;10236;49.638;6.830;2022-09-20T21:41:57;6.57;;;2.83;;